Belleville, Wisconsin
Current Conditions -  °F | °C
As of 6:35 AM on Friday 24 Oct 2014 (Local Time) from KEFT Reporting Station
Moderate Fog Moderate Fog  
Wind Chill: 48°   Ceiling: 300
Heat Index: 48°   Visibility: 0.25mi
Dew Point: 48°   Wind: 0mph
Humidity: 100%   Direction: NA
Pressure: 30.05"   Gusts: NA
Location:  42.86°N, 89.54°W
Report Text: KEFT 241135Z AUTO 00000KT 1/4SM FG OVC003 09/09 A3005 RMK AO2
Loading
Personal Weather Stations






























Interactive Weather Map New forecast layout! Learn more

10-Day Weather Forecast

Advertisements
Track Severe Weather on mobile